PAL494 VHHH-RPLL
Flight info
| Callsign | PAL494 |
|---|---|
| Flight time | 1h 32m |
| Altitude | 37000 |
| Route | DALOL DCT NOMAN A461 CAB CAB3R |
| Aircraft | B77W/H-SDE1E2E3FGHIJ2J3J4J5M1RWXY/LB1D1 |
Departure
| Time | 2026-05-07 13:25 |
|---|---|
| Airport | Hong Kong International Airport (VHHH) |
Arrival
| Time | 2026-05-07 14:57 |
|---|---|
| Airport | Ninoy Aquino International Airport (RPLL) |
| Time | Latitude | Longitude | Altitude | Speed | Heading |
|---|---|---|---|---|---|
| 2026-05-07 12:40 | 22.30954 | 113.91889 | 42 ft | 0 kts | 251° |
| 2026-05-07 13:11 | 22.30957 | 113.91899 | 14 ft | 2 kts | 245° |
| 2026-05-07 13:11 | 22.30964 | 113.91916 | 16 ft | 2 kts | 243° |
| 2026-05-07 13:11 | 22.30972 | 113.91931 | 26 ft | 2 kts | 236° |
| 2026-05-07 13:11 | 22.30982 | 113.91945 | 44 ft | 2 kts | 221° |
| 2026-05-07 13:12 | 22.30996 | 113.91955 | 39 ft | 2 kts | 195° |
| 2026-05-07 13:12 | 22.31012 | 113.91957 | 38 ft | 2 kts | 168° |
| 2026-05-07 13:12 | 22.31022 | 113.91954 | 40 ft | 1 kts | 161° |
| 2026-05-07 13:15 | 22.31019 | 113.91955 | 40 ft | 1 kts | 161° |
| 2026-05-07 13:15 | 22.31010 | 113.91958 | 39 ft | 2 kts | 161° |
| 2026-05-07 13:15 | 22.30996 | 113.91963 | 38 ft | 3 kts | 161° |
| 2026-05-07 13:16 | 22.30977 | 113.91970 | 40 ft | 3 kts | 161° |
| 2026-05-07 13:16 | 22.30934 | 113.91987 | 42 ft | 10 kts | 160° |
| 2026-05-07 13:16 | 22.30878 | 113.92008 | 42 ft | 7 kts | 160° |
| 2026-05-07 13:16 | 22.30832 | 113.92026 | 42 ft | 7 kts | 160° |
| 2026-05-07 13:17 | 22.30792 | 113.92056 | 42 ft | 7 kts | 123° |
| 2026-05-07 13:17 | 22.30780 | 113.92111 | 42 ft | 8 kts | 108° |
| 2026-05-07 13:17 | 22.30740 | 113.92149 | 41 ft | 8 kts | 154° |
| 2026-05-07 13:17 | 22.30690 | 113.92171 | 42 ft | 8 kts | 158° |
| 2026-05-07 13:18 | 22.30638 | 113.92192 | 42 ft | 8 kts | 163° |
| 2026-05-07 13:18 | 22.30584 | 113.92187 | 42 ft | 8 kts | 213° |
| 2026-05-07 13:18 | 22.30559 | 113.92132 | 42 ft | 9 kts | 251° |
| 2026-05-07 13:18 | 22.30535 | 113.92056 | 42 ft | 14 kts | 251° |
| 2026-05-07 13:19 | 22.30497 | 113.91938 | 42 ft | 20 kts | 251° |
| 2026-05-07 13:19 | 22.30448 | 113.91783 | 42 ft | 25 kts | 251° |
| 2026-05-07 13:19 | 22.30386 | 113.91594 | 42 ft | 23 kts | 250° |
| 2026-05-07 13:19 | 22.30333 | 113.91433 | 41 ft | 23 kts | 250° |
| 2026-05-07 13:20 | 22.30281 | 113.91273 | 41 ft | 23 kts | 250° |
| 2026-05-07 13:20 | 22.30229 | 113.91113 | 42 ft | 23 kts | 251° |
| 2026-05-07 13:20 | 22.30179 | 113.90953 | 42 ft | 23 kts | 251° |
| 2026-05-07 13:20 | 22.30130 | 113.90804 | 42 ft | 23 kts | 251° |
| 2026-05-07 13:21 | 22.30078 | 113.90643 | 42 ft | 23 kts | 250° |
| 2026-05-07 13:21 | 22.30026 | 113.90482 | 41 ft | 23 kts | 251° |
| 2026-05-07 13:21 | 22.29974 | 113.90321 | 41 ft | 23 kts | 251° |
| 2026-05-07 13:21 | 22.29922 | 113.90159 | 41 ft | 23 kts | 251° |
| 2026-05-07 13:22 | 22.29876 | 113.90013 | 41 ft | 16 kts | 251° |
| 2026-05-07 13:22 | 22.29838 | 113.89899 | 41 ft | 16 kts | 250° |
| 2026-05-07 13:22 | 22.29809 | 113.89810 | 42 ft | 8 kts | 249° |
| 2026-05-07 13:22 | 22.29769 | 113.89770 | 42 ft | 8 kts | 196° |
| 2026-05-07 13:23 | 22.29713 | 113.89780 | 42 ft | 8 kts | 163° |
| 2026-05-07 13:23 | 22.29665 | 113.89815 | 41 ft | 8 kts | 132° |
| 2026-05-07 13:23 | 22.29648 | 113.89874 | 42 ft | 9 kts | 80° |
| 2026-05-07 13:23 | 22.29654 | 113.89897 | 42 ft | 0 kts | 71° |
| 2026-05-07 13:24 | 22.29790 | 113.90320 | 39 ft | 120 kts | 71° |
| 2026-05-07 13:24 | 22.30152 | 113.91467 | 159 ft | 188 kts | 72° |
| 2026-05-07 13:25 | 22.30611 | 113.92883 | 656 ft | 207 kts | 72° |
| 2026-05-07 13:25 | 22.31087 | 113.94398 | 1339 ft | 223 kts | 73° |
| 2026-05-07 13:25 | 22.31588 | 113.96095 | 1816 ft | 243 kts | 76° |
| 2026-05-07 13:25 | 22.31708 | 113.97934 | 2347 ft | 256 kts | 107° |
| 2026-05-07 13:26 | 22.30780 | 113.99558 | 3057 ft | 259 kts | 137° |
| 2026-05-07 13:26 | 22.29414 | 114.00865 | 3754 ft | 266 kts | 138° |
| 2026-05-07 13:26 | 22.28042 | 114.02246 | 4620 ft | 272 kts | 136° |
| 2026-05-07 13:26 | 22.26667 | 114.03690 | 5497 ft | 277 kts | 136° |
| 2026-05-07 13:27 | 22.25295 | 114.05179 | 6398 ft | 282 kts | 135° |
| 2026-05-07 13:27 | 22.23920 | 114.06709 | 7226 ft | 285 kts | 135° |
| 2026-05-07 13:27 | 22.22541 | 114.08272 | 8040 ft | 290 kts | 134° |
| 2026-05-07 13:27 | 22.21153 | 114.09869 | 8850 ft | 295 kts | 134° |
| 2026-05-07 13:28 | 22.19739 | 114.11512 | 9680 ft | 300 kts | 134° |
| 2026-05-07 13:28 | 22.18315 | 114.13180 | 10414 ft | 307 kts | 134° |
| 2026-05-07 13:28 | 22.16818 | 114.14940 | 10745 ft | 332 kts | 134° |
| 2026-05-07 13:28 | 22.15216 | 114.16828 | 10944 ft | 359 kts | 134° |
| 2026-05-07 13:29 | 22.13479 | 114.18882 | 11338 ft | 379 kts | 134° |
| 2026-05-07 13:29 | 22.11683 | 114.21014 | 12073 ft | 389 kts | 133° |
| 2026-05-07 13:29 | 22.09855 | 114.23188 | 12975 ft | 394 kts | 133° |
| 2026-05-07 13:29 | 22.07999 | 114.25395 | 13900 ft | 399 kts | 133° |
| 2026-05-07 13:30 | 22.06122 | 114.27628 | 14690 ft | 405 kts | 134° |
| 2026-05-07 13:30 | 22.04213 | 114.29898 | 15473 ft | 411 kts | 134° |
| 2026-05-07 13:30 | 22.02273 | 114.32203 | 16236 ft | 417 kts | 134° |
| 2026-05-07 13:30 | 22.00364 | 114.34469 | 16974 ft | 423 kts | 134° |
| 2026-05-07 13:31 | 21.98329 | 114.36884 | 17741 ft | 428 kts | 134° |
| 2026-05-07 13:31 | 21.96315 | 114.39274 | 18448 ft | 434 kts | 134° |
| 2026-05-07 13:31 | 21.94285 | 114.41679 | 19091 ft | 439 kts | 134° |
| 2026-05-07 13:31 | 21.92220 | 114.44127 | 19750 ft | 444 kts | 134° |
| 2026-05-07 13:32 | 21.90134 | 114.46599 | 20411 ft | 448 kts | 134° |
| 2026-05-07 13:32 | 21.88023 | 114.49097 | 21060 ft | 453 kts | 134° |
| 2026-05-07 13:32 | 21.85892 | 114.51620 | 21703 ft | 458 kts | 134° |
| 2026-05-07 13:32 | 21.83737 | 114.54169 | 22327 ft | 463 kts | 134° |
| 2026-05-07 13:33 | 21.81559 | 114.56744 | 22945 ft | 467 kts | 133° |
| 2026-05-07 13:33 | 21.79341 | 114.59365 | 23565 ft | 472 kts | 133° |
| 2026-05-07 13:33 | 21.77148 | 114.61955 | 24066 ft | 476 kts | 133° |
| 2026-05-07 13:33 | 21.74911 | 114.64596 | 24599 ft | 479 kts | 133° |
| 2026-05-07 13:34 | 21.72658 | 114.67255 | 25123 ft | 482 kts | 133° |
| 2026-05-07 13:34 | 21.68101 | 114.72628 | 26144 ft | 489 kts | 134° |
| 2026-05-07 13:34 | 21.65793 | 114.75347 | 26642 ft | 493 kts | 134° |
| 2026-05-07 13:35 | 21.63472 | 114.78080 | 27113 ft | 497 kts | 134° |
| 2026-05-07 13:35 | 21.61137 | 114.80827 | 27578 ft | 500 kts | 134° |
| 2026-05-07 13:35 | 21.58781 | 114.83599 | 28050 ft | 504 kts | 134° |
| 2026-05-07 13:35 | 21.56410 | 114.86387 | 28495 ft | 507 kts | 134° |
| 2026-05-07 13:36 | 21.54021 | 114.89194 | 28955 ft | 510 kts | 134° |
| 2026-05-07 13:36 | 21.51617 | 114.92017 | 29370 ft | 514 kts | 134° |
| 2026-05-07 13:36 | 21.49195 | 114.94860 | 29797 ft | 517 kts | 134° |
| 2026-05-07 13:36 | 21.46791 | 114.97680 | 30126 ft | 520 kts | 134° |
| 2026-05-07 13:37 | 21.44315 | 115.00584 | 30454 ft | 522 kts | 134° |
| 2026-05-07 13:37 | 21.41856 | 115.03466 | 30842 ft | 522 kts | 134° |
| 2026-05-07 13:37 | 21.39437 | 115.06300 | 31328 ft | 520 kts | 133° |
| 2026-05-07 13:37 | 21.36966 | 115.09194 | 31864 ft | 518 kts | 133° |
| 2026-05-07 13:38 | 21.34537 | 115.12036 | 32353 ft | 516 kts | 133° |
| 2026-05-07 13:38 | 21.32140 | 115.14840 | 32818 ft | 515 kts | 133° |
| 2026-05-07 13:38 | 21.29718 | 115.17670 | 33273 ft | 514 kts | 133° |
| 2026-05-07 13:38 | 21.27305 | 115.20489 | 33744 ft | 513 kts | 133° |
| 2026-05-07 13:39 | 21.24888 | 115.23311 | 34178 ft | 512 kts | 133° |
| 2026-05-07 13:39 | 21.22474 | 115.26127 | 34510 ft | 513 kts | 133° |
| 2026-05-07 13:39 | 21.22258 | 115.26380 | 34546 ft | 513 kts | 133° |
| 2026-05-07 13:40 | 21.21717 | 115.27010 | 34608 ft | 513 kts | 133° |
| 2026-05-07 13:40 | 21.19294 | 115.29836 | 34934 ft | 514 kts | 133° |
| 2026-05-07 13:40 | 21.16873 | 115.32657 | 35275 ft | 514 kts | 133° |
| 2026-05-07 13:40 | 21.14454 | 115.35476 | 35610 ft | 514 kts | 133° |
| 2026-05-07 13:41 | 21.12030 | 115.38298 | 35930 ft | 514 kts | 133° |
| 2026-05-07 13:41 | 21.09637 | 115.41083 | 36267 ft | 514 kts | 133° |
| 2026-05-07 13:41 | 21.07206 | 115.43911 | 36579 ft | 514 kts | 133° |
| 2026-05-07 13:41 | 21.04775 | 115.46737 | 36861 ft | 516 kts | 133° |
| 2026-05-07 13:42 | 21.02328 | 115.49580 | 36908 ft | 520 kts | 133° |
| 2026-05-07 13:42 | 20.97450 | 115.55244 | 36928 ft | 518 kts | 133° |
| 2026-05-07 13:43 | 20.92586 | 115.60886 | 36939 ft | 513 kts | 133° |
| 2026-05-07 13:43 | 20.87746 | 115.66494 | 36947 ft | 512 kts | 133° |
| 2026-05-07 13:44 | 20.83729 | 115.71143 | 36943 ft | 513 kts | 133° |
| 2026-05-07 13:44 | 20.78056 | 115.77703 | 36944 ft | 514 kts | 133° |
| 2026-05-07 13:45 | 20.74019 | 115.82368 | 36946 ft | 515 kts | 133° |
| 2026-05-07 13:45 | 20.68360 | 115.88899 | 36945 ft | 516 kts | 133° |
| 2026-05-07 13:46 | 20.63474 | 115.94531 | 36941 ft | 517 kts | 133° |
| 2026-05-07 13:46 | 20.59405 | 115.99217 | 36941 ft | 517 kts | 133° |
| 2026-05-07 13:47 | 20.54518 | 116.04841 | 36941 ft | 517 kts | 133° |
| 2026-05-07 13:47 | 20.49623 | 116.10467 | 36941 ft | 517 kts | 133° |
| 2026-05-07 13:48 | 20.44752 | 116.16061 | 36938 ft | 516 kts | 133° |
| 2026-05-07 13:48 | 20.39866 | 116.21666 | 36938 ft | 516 kts | 133° |
| 2026-05-07 13:49 | 20.34979 | 116.27267 | 36939 ft | 515 kts | 133° |
| 2026-05-07 13:49 | 20.30115 | 116.32835 | 36936 ft | 515 kts | 133° |
| 2026-05-07 13:50 | 20.25233 | 116.38420 | 36937 ft | 514 kts | 133° |
| 2026-05-07 13:50 | 20.20383 | 116.43962 | 36937 ft | 514 kts | 133° |
| 2026-05-07 13:51 | 20.15509 | 116.49526 | 36938 ft | 514 kts | 133° |
| 2026-05-07 13:51 | 20.10626 | 116.55096 | 36933 ft | 514 kts | 133° |
| 2026-05-07 13:52 | 20.05744 | 116.60659 | 36937 ft | 514 kts | 133° |
| 2026-05-07 13:52 | 20.00866 | 116.66212 | 36937 ft | 514 kts | 133° |
| 2026-05-07 13:53 | 19.96007 | 116.71792 | 36936 ft | 514 kts | 132° |
| 2026-05-07 13:53 | 19.91213 | 116.77374 | 36934 ft | 514 kts | 132° |
| 2026-05-07 13:54 | 19.86362 | 116.83019 | 36936 ft | 514 kts | 132° |
| 2026-05-07 13:54 | 19.81570 | 116.88578 | 36934 ft | 514 kts | 132° |
| 2026-05-07 13:55 | 19.76730 | 116.94181 | 36932 ft | 513 kts | 132° |
| 2026-05-07 13:55 | 19.71922 | 116.99740 | 36932 ft | 513 kts | 132° |
| 2026-05-07 13:56 | 19.67232 | 117.05159 | 36932 ft | 513 kts | 132° |
| 2026-05-07 13:56 | 19.62403 | 117.10733 | 36933 ft | 513 kts | 132° |
| 2026-05-07 13:57 | 19.57571 | 117.16306 | 36930 ft | 513 kts | 132° |
| 2026-05-07 13:57 | 19.52743 | 117.21869 | 36932 ft | 512 kts | 132° |
| 2026-05-07 13:58 | 19.47913 | 117.27429 | 36926 ft | 512 kts | 132° |
| 2026-05-07 13:58 | 19.43085 | 117.32981 | 36926 ft | 512 kts | 132° |
| 2026-05-07 13:59 | 19.38252 | 117.38533 | 36929 ft | 512 kts | 132° |
| 2026-05-07 13:59 | 19.33460 | 117.44035 | 36928 ft | 511 kts | 132° |
| 2026-05-07 14:00 | 19.28653 | 117.49547 | 36922 ft | 511 kts | 132° |
| 2026-05-07 14:00 | 19.23826 | 117.55078 | 36924 ft | 511 kts | 132° |
| 2026-05-07 14:01 | 19.19005 | 117.60596 | 36926 ft | 510 kts | 132° |
| 2026-05-07 14:01 | 19.14184 | 117.66111 | 36923 ft | 510 kts | 132° |
| 2026-05-07 14:02 | 19.09364 | 117.71618 | 36924 ft | 510 kts | 132° |
| 2026-05-07 14:02 | 19.04545 | 117.77122 | 36926 ft | 510 kts | 132° |
| 2026-05-07 14:03 | 18.99720 | 117.82619 | 36923 ft | 510 kts | 132° |
| 2026-05-07 14:03 | 18.94923 | 117.88075 | 36924 ft | 509 kts | 132° |
| 2026-05-07 14:04 | 18.90097 | 117.93559 | 36920 ft | 509 kts | 132° |
| 2026-05-07 14:04 | 18.85277 | 117.99034 | 36920 ft | 509 kts | 132° |
| 2026-05-07 14:05 | 18.80454 | 118.04509 | 36924 ft | 509 kts | 132° |
| 2026-05-07 14:05 | 18.75633 | 118.09976 | 36922 ft | 509 kts | 132° |
| 2026-05-07 14:06 | 18.70806 | 118.15444 | 36919 ft | 508 kts | 132° |
| 2026-05-07 14:06 | 18.66017 | 118.20865 | 36916 ft | 508 kts | 132° |
| 2026-05-07 14:07 | 18.61191 | 118.26323 | 36915 ft | 508 kts | 132° |
| 2026-05-07 14:07 | 18.56366 | 118.31774 | 36911 ft | 508 kts | 133° |
| 2026-05-07 14:08 | 18.51548 | 118.37214 | 36913 ft | 507 kts | 133° |
| 2026-05-07 14:08 | 18.46730 | 118.42648 | 36912 ft | 507 kts | 133° |
| 2026-05-07 14:09 | 18.41913 | 118.48077 | 36911 ft | 507 kts | 133° |
| 2026-05-07 14:09 | 18.37117 | 118.53476 | 36909 ft | 507 kts | 133° |
| 2026-05-07 14:10 | 18.32303 | 118.58892 | 36909 ft | 506 kts | 133° |
| 2026-05-07 14:10 | 18.27496 | 118.64296 | 36906 ft | 506 kts | 133° |
| 2026-05-07 14:11 | 18.22686 | 118.69697 | 36907 ft | 505 kts | 133° |
| 2026-05-07 14:11 | 18.17872 | 118.75099 | 36909 ft | 505 kts | 133° |
| 2026-05-07 14:12 | 18.13073 | 118.80479 | 36907 ft | 504 kts | 133° |
| 2026-05-07 14:12 | 18.08281 | 118.85848 | 36908 ft | 503 kts | 133° |
| 2026-05-07 14:13 | 18.03488 | 118.91214 | 36904 ft | 502 kts | 133° |
| 2026-05-07 14:13 | 17.98705 | 118.96562 | 36903 ft | 502 kts | 133° |
| 2026-05-07 14:14 | 17.93950 | 119.01872 | 36899 ft | 502 kts | 133° |
| 2026-05-07 14:14 | 17.89169 | 119.07207 | 36898 ft | 501 kts | 133° |
| 2026-05-07 14:15 | 17.84390 | 119.12538 | 36899 ft | 501 kts | 133° |
| 2026-05-07 14:15 | 17.79606 | 119.17870 | 36895 ft | 501 kts | 133° |
| 2026-05-07 14:16 | 17.74826 | 119.23194 | 36896 ft | 501 kts | 133° |
| 2026-05-07 14:16 | 17.70045 | 119.28515 | 36891 ft | 501 kts | 133° |
| 2026-05-07 14:17 | 17.65260 | 119.33835 | 36889 ft | 501 kts | 133° |
| 2026-05-07 14:17 | 17.60505 | 119.39117 | 36890 ft | 501 kts | 133° |
| 2026-05-07 14:18 | 17.55695 | 119.44456 | 36887 ft | 500 kts | 133° |
| 2026-05-07 14:18 | 17.50945 | 119.49724 | 36886 ft | 500 kts | 133° |
| 2026-05-07 14:19 | 17.46164 | 119.55022 | 36882 ft | 500 kts | 133° |
| 2026-05-07 14:19 | 17.41385 | 119.60314 | 36889 ft | 500 kts | 133° |
| 2026-05-07 14:20 | 17.36611 | 119.65596 | 36887 ft | 500 kts | 133° |
| 2026-05-07 14:20 | 17.31822 | 119.70891 | 36884 ft | 499 kts | 133° |
| 2026-05-07 14:21 | 17.27047 | 119.76165 | 36884 ft | 499 kts | 133° |
| 2026-05-07 14:21 | 17.22282 | 119.81425 | 36882 ft | 499 kts | 133° |
| 2026-05-07 14:22 | 17.17508 | 119.86690 | 36882 ft | 499 kts | 134° |
| 2026-05-07 14:22 | 17.12721 | 119.91964 | 36879 ft | 499 kts | 134° |
| 2026-05-07 14:23 | 17.07936 | 119.97234 | 36883 ft | 499 kts | 134° |
| 2026-05-07 14:23 | 17.03186 | 120.02460 | 36878 ft | 499 kts | 134° |
| 2026-05-07 14:24 | 16.98403 | 120.07717 | 36882 ft | 498 kts | 134° |
| 2026-05-07 14:24 | 16.93629 | 120.12962 | 36884 ft | 498 kts | 134° |
| 2026-05-07 14:25 | 16.88852 | 120.18205 | 36878 ft | 497 kts | 134° |
| 2026-05-07 14:25 | 16.84089 | 120.23431 | 36886 ft | 497 kts | 134° |
| 2026-05-07 14:26 | 16.79321 | 120.28659 | 36894 ft | 496 kts | 134° |
| 2026-05-07 14:26 | 16.74475 | 120.33777 | 36897 ft | 496 kts | 139° |
| 2026-05-07 14:27 | 16.68885 | 120.37974 | 36912 ft | 495 kts | 150° |
| 2026-05-07 14:27 | 16.62784 | 120.41259 | 36928 ft | 494 kts | 154° |
| 2026-05-07 14:28 | 16.57676 | 120.43952 | 36926 ft | 494 kts | 153° |
| 2026-05-07 14:28 | 16.50521 | 120.47766 | 36928 ft | 494 kts | 153° |
| 2026-05-07 14:29 | 16.44461 | 120.51019 | 36934 ft | 493 kts | 153° |
| 2026-05-07 14:29 | 16.38360 | 120.54295 | 36941 ft | 493 kts | 153° |
| 2026-05-07 14:30 | 16.32234 | 120.57579 | 36321 ft | 502 kts | 153° |
| 2026-05-07 14:30 | 16.29119 | 120.59248 | 35734 ft | 501 kts | 153° |
| 2026-05-07 14:30 | 16.26042 | 120.60897 | 35212 ft | 496 kts | 153° |
| 2026-05-07 14:30 | 16.24018 | 120.61981 | 34840 ft | 494 kts | 153° |
| 2026-05-07 14:31 | 16.19948 | 120.64159 | 34131 ft | 489 kts | 153° |
| 2026-05-07 14:31 | 16.16930 | 120.65774 | 33548 ft | 486 kts | 153° |
| 2026-05-07 14:31 | 16.14945 | 120.66835 | 33178 ft | 484 kts | 153° |
| 2026-05-07 14:31 | 16.11956 | 120.68434 | 32645 ft | 480 kts | 153° |
| 2026-05-07 14:32 | 16.09004 | 120.70012 | 32127 ft | 476 kts | 153° |
| 2026-05-07 14:32 | 16.06063 | 120.71583 | 31618 ft | 472 kts | 153° |
| 2026-05-07 14:32 | 16.03148 | 120.73140 | 31112 ft | 468 kts | 153° |
| 2026-05-07 14:32 | 16.00266 | 120.74679 | 30613 ft | 465 kts | 153° |
| 2026-05-07 14:33 | 15.97391 | 120.76214 | 30107 ft | 463 kts | 153° |
| 2026-05-07 14:33 | 15.94531 | 120.77740 | 29537 ft | 460 kts | 153° |
| 2026-05-07 14:33 | 15.91698 | 120.79251 | 28995 ft | 456 kts | 153° |
| 2026-05-07 14:33 | 15.88878 | 120.80756 | 28458 ft | 453 kts | 153° |
| 2026-05-07 14:34 | 15.86089 | 120.82242 | 27956 ft | 449 kts | 153° |
| 2026-05-07 14:34 | 15.83316 | 120.83720 | 27452 ft | 446 kts | 153° |
| 2026-05-07 14:34 | 15.80571 | 120.85183 | 26959 ft | 442 kts | 153° |
| 2026-05-07 14:34 | 15.77840 | 120.86637 | 26469 ft | 439 kts | 153° |
| 2026-05-07 14:35 | 15.75166 | 120.88061 | 25986 ft | 436 kts | 153° |
| 2026-05-07 14:35 | 15.72475 | 120.89494 | 25506 ft | 433 kts | 153° |
| 2026-05-07 14:35 | 15.69796 | 120.90920 | 25008 ft | 431 kts | 153° |
| 2026-05-07 14:35 | 15.67131 | 120.92337 | 24526 ft | 429 kts | 153° |
| 2026-05-07 14:36 | 15.64484 | 120.93745 | 24032 ft | 427 kts | 153° |
| 2026-05-07 14:36 | 15.61841 | 120.95151 | 23543 ft | 426 kts | 153° |
| 2026-05-07 14:36 | 15.59208 | 120.96551 | 23001 ft | 424 kts | 153° |
| 2026-05-07 14:36 | 15.56608 | 120.97933 | 22476 ft | 413 kts | 153° |
| 2026-05-07 14:37 | 15.54117 | 120.99256 | 22245 ft | 389 kts | 153° |
| 2026-05-07 14:37 | 15.49521 | 121.01559 | 21907 ft | 346 kts | 165° |
| 2026-05-07 14:37 | 15.47169 | 121.01764 | 21703 ft | 338 kts | 186° |
| 2026-05-07 14:38 | 15.44887 | 121.01185 | 21345 ft | 339 kts | 200° |
| 2026-05-07 14:38 | 15.42659 | 121.00310 | 20997 ft | 347 kts | 200° |
| 2026-05-07 14:38 | 15.40381 | 120.99399 | 20621 ft | 353 kts | 200° |
| 2026-05-07 14:38 | 15.38083 | 120.98477 | 20219 ft | 354 kts | 200° |
| 2026-05-07 14:39 | 15.35787 | 120.97558 | 19828 ft | 353 kts | 200° |
| 2026-05-07 14:39 | 15.33491 | 120.96646 | 19426 ft | 353 kts | 200° |
| 2026-05-07 14:39 | 15.31201 | 120.95739 | 19037 ft | 352 kts | 200° |
| 2026-05-07 14:39 | 15.28914 | 120.94838 | 18657 ft | 352 kts | 200° |
| 2026-05-07 14:40 | 15.26623 | 120.93937 | 18241 ft | 352 kts | 200° |
| 2026-05-07 14:40 | 15.24336 | 120.93040 | 17812 ft | 351 kts | 200° |
| 2026-05-07 14:40 | 15.22054 | 120.92145 | 17407 ft | 350 kts | 200° |
| 2026-05-07 14:40 | 15.19810 | 120.91265 | 17016 ft | 348 kts | 200° |
| 2026-05-07 14:41 | 15.17521 | 120.90369 | 16626 ft | 346 kts | 200° |
| 2026-05-07 14:41 | 15.15298 | 120.89498 | 16239 ft | 345 kts | 200° |
| 2026-05-07 14:41 | 15.13059 | 120.88622 | 15857 ft | 343 kts | 200° |
| 2026-05-07 14:41 | 15.10827 | 120.87748 | 15476 ft | 342 kts | 200° |
| 2026-05-07 14:42 | 15.08606 | 120.86879 | 15095 ft | 341 kts | 200° |
| 2026-05-07 14:42 | 15.06381 | 120.86008 | 14706 ft | 340 kts | 199° |
| 2026-05-07 14:42 | 15.04172 | 120.85144 | 14329 ft | 339 kts | 199° |
| 2026-05-07 14:42 | 15.01975 | 120.84284 | 13984 ft | 337 kts | 199° |
| 2026-05-07 14:43 | 14.99789 | 120.83429 | 13620 ft | 336 kts | 199° |
| 2026-05-07 14:43 | 14.97607 | 120.82576 | 13231 ft | 333 kts | 199° |
| 2026-05-07 14:43 | 14.95461 | 120.81737 | 13040 ft | 325 kts | 199° |
| 2026-05-07 14:43 | 14.93333 | 120.80906 | 12492 ft | 329 kts | 199° |
| 2026-05-07 14:44 | 14.91183 | 120.80068 | 12094 ft | 329 kts | 199° |
| 2026-05-07 14:44 | 14.89094 | 120.79253 | 11908 ft | 321 kts | 199° |
| 2026-05-07 14:44 | 14.87013 | 120.78441 | 11473 ft | 322 kts | 199° |
| 2026-05-07 14:44 | 14.84906 | 120.77620 | 11092 ft | 322 kts | 199° |
| 2026-05-07 14:45 | 14.82809 | 120.76802 | 10713 ft | 321 kts | 198° |
| 2026-05-07 14:45 | 14.80722 | 120.75989 | 10341 ft | 321 kts | 198° |
| 2026-05-07 14:45 | 14.78684 | 120.75194 | 10169 ft | 313 kts | 198° |
| 2026-05-07 14:45 | 14.76654 | 120.74402 | 9885 ft | 310 kts | 198° |
| 2026-05-07 14:46 | 14.74659 | 120.73625 | 9622 ft | 306 kts | 198° |
| 2026-05-07 14:46 | 14.72673 | 120.72852 | 9313 ft | 303 kts | 198° |
| 2026-05-07 14:46 | 14.70753 | 120.72103 | 9114 ft | 296 kts | 198° |
| 2026-05-07 14:46 | 14.68773 | 120.71334 | 8545 ft | 303 kts | 198° |
| 2026-05-07 14:47 | 14.66791 | 120.70563 | 8137 ft | 304 kts | 198° |
| 2026-05-07 14:47 | 14.64842 | 120.69804 | 7787 ft | 302 kts | 198° |
| 2026-05-07 14:47 | 14.62876 | 120.69096 | 7422 ft | 293 kts | 190° |
| 2026-05-07 14:47 | 14.60913 | 120.69130 | 7091 ft | 277 kts | 160° |
| 2026-05-07 14:48 | 14.59249 | 120.69937 | 6803 ft | 254 kts | 147° |
| 2026-05-07 14:48 | 14.57743 | 120.70834 | 6571 ft | 247 kts | 148° |
| 2026-05-07 14:48 | 14.56283 | 120.71682 | 6441 ft | 232 kts | 147° |
| 2026-05-07 14:48 | 14.54933 | 120.72468 | 6317 ft | 213 kts | 147° |
| 2026-05-07 14:49 | 14.53657 | 120.73213 | 6224 ft | 208 kts | 147° |
| 2026-05-07 14:49 | 14.52402 | 120.73948 | 6078 ft | 208 kts | 147° |
| 2026-05-07 14:49 | 14.51146 | 120.74687 | 5789 ft | 208 kts | 147° |
| 2026-05-07 14:49 | 14.49906 | 120.75423 | 5475 ft | 208 kts | 147° |
| 2026-05-07 14:50 | 14.48658 | 120.76164 | 5200 ft | 206 kts | 147° |
| 2026-05-07 14:50 | 14.47425 | 120.76897 | 4950 ft | 203 kts | 147° |
| 2026-05-07 14:50 | 14.46201 | 120.77624 | 4661 ft | 203 kts | 147° |
| 2026-05-07 14:50 | 14.44977 | 120.78350 | 4342 ft | 202 kts | 147° |
| 2026-05-07 14:51 | 14.43763 | 120.79069 | 4080 ft | 199 kts | 147° |
| 2026-05-07 14:51 | 14.42571 | 120.79775 | 3773 ft | 197 kts | 146° |
| 2026-05-07 14:51 | 14.41536 | 120.80599 | 3612 ft | 182 kts | 122° |
| 2026-05-07 14:51 | 14.41018 | 120.81772 | 3563 ft | 187 kts | 98° |
| 2026-05-07 14:52 | 14.41187 | 120.83100 | 3488 ft | 189 kts | 72° |
| 2026-05-07 14:52 | 14.41664 | 120.84391 | 3329 ft | 194 kts | 69° |
| 2026-05-07 14:52 | 14.42174 | 120.85678 | 3095 ft | 193 kts | 68° |
| 2026-05-07 14:52 | 14.42753 | 120.86902 | 2845 ft | 187 kts | 64° |
| 2026-05-07 14:53 | 14.43351 | 120.88029 | 2654 ft | 172 kts | 63° |
| 2026-05-07 14:53 | 14.43910 | 120.89066 | 2406 ft | 159 kts | 63° |
| 2026-05-07 14:53 | 14.44427 | 120.90026 | 2202 ft | 147 kts | 63° |
| 2026-05-07 14:53 | 14.44908 | 120.90920 | 2037 ft | 141 kts | 64° |
| 2026-05-07 14:54 | 14.45384 | 120.91807 | 1859 ft | 142 kts | 64° |
| 2026-05-07 14:54 | 14.45866 | 120.92702 | 1686 ft | 143 kts | 63° |
| 2026-05-07 14:54 | 14.46348 | 120.93601 | 1484 ft | 144 kts | 64° |
| 2026-05-07 14:54 | 14.46837 | 120.94508 | 1330 ft | 145 kts | 63° |
| 2026-05-07 14:55 | 14.47320 | 120.95410 | 1138 ft | 142 kts | 64° |
| 2026-05-07 14:55 | 14.47803 | 120.96307 | 967 ft | 146 kts | 63° |
| 2026-05-07 14:55 | 14.48272 | 120.97247 | 694 ft | 149 kts | 70° |
| 2026-05-07 14:55 | 14.48760 | 120.98177 | 464 ft | 145 kts | 65° |
| 2026-05-07 14:56 | 14.49286 | 120.99079 | 306 ft | 145 kts | 60° |
| 2026-05-07 14:56 | 14.49797 | 120.99977 | 167 ft | 148 kts | 63° |
| 2026-05-07 14:56 | 14.50298 | 121.00919 | 88 ft | 145 kts | 62° |
| 2026-05-07 14:56 | 14.50742 | 121.01728 | 65 ft | 113 kts | 60° |
| 2026-05-07 14:57 | 14.51031 | 121.02227 | 66 ft | 26 kts | 41° |
| 2026-05-07 14:57 | 14.51126 | 121.02296 | 67 ft | 10 kts | 28° |
| 2026-05-07 14:57 | 14.51191 | 121.02278 | 70 ft | 8 kts | 297° |
| 2026-05-07 14:57 | 14.51185 | 121.02257 | 69 ft | 4 kts | 249° |
| 2026-05-07 14:58 | 14.51173 | 121.02230 | 70 ft | 5 kts | 245° |
| 2026-05-07 14:58 | 14.51156 | 121.02196 | 64 ft | 6 kts | 242° |
| 2026-05-07 14:58 | 14.51134 | 121.02154 | 64 ft | 7 kts | 241° |
| 2026-05-07 14:58 | 14.51107 | 121.02104 | 63 ft | 9 kts | 240° |
| 2026-05-07 14:59 | 14.51073 | 121.02042 | 64 ft | 15 kts | 240° |
| 2026-05-07 14:59 | 14.50975 | 121.01867 | 65 ft | 34 kts | 240° |
| 2026-05-07 14:59 | 14.50859 | 121.01660 | 64 ft | 33 kts | 240° |
| 2026-05-07 14:59 | 14.50764 | 121.01490 | 63 ft | 18 kts | 240° |
| 2026-05-07 15:00 | 14.50701 | 121.01378 | 64 ft | 18 kts | 240° |
| 2026-05-07 15:00 | 14.50639 | 121.01267 | 63 ft | 13 kts | 240° |
| 2026-05-07 15:00 | 14.50591 | 121.01181 | 63 ft | 14 kts | 240° |
| 2026-05-07 15:00 | 14.50539 | 121.01090 | 65 ft | 15 kts | 240° |
| 2026-05-07 15:01 | 14.50489 | 121.00997 | 63 ft | 15 kts | 241° |
| 2026-05-07 15:01 | 14.50440 | 121.00907 | 64 ft | 13 kts | 239° |
| 2026-05-07 15:01 | 14.50395 | 121.00827 | 65 ft | 13 kts | 239° |
| 2026-05-07 15:01 | 14.50376 | 121.00751 | 68 ft | 11 kts | 273° |
| 2026-05-07 15:02 | 14.50381 | 121.00695 | 73 ft | 6 kts | 279° |
| 2026-05-07 15:02 | 14.50405 | 121.00657 | 68 ft | 7 kts | 326° |
| 2026-05-07 15:02 | 14.50444 | 121.00653 | 66 ft | 4 kts | 360° |
| 2026-05-07 15:02 | 14.50445 | 121.00653 | 66 ft | 0 kts | 360° |